Station Historical Data
Daily Summary for March 10, 2012 Units:  English    Metric   Both
« Previous Day
Next Day »
Daily Weekly Monthly Yearly Custom
  High: Low: Average:
Temperature: 64.9 °F 35.9 °F 50.2 °F
Dew Point: 38.8 °F 24.0 °F 30 °F
Humidity: 65% 29% 47%
Wind Speed: 10.0mph 0.0mph 3.4mph
Wind Gust: 11.0mph - -
Wind- - East
Pressure: 30.44 in 30.28 in -
Precipitation: 0.00 in    
Historical Graphs
 
 
Tabular Data for March 10, 2012
Time Temperature Dew Point Pressure Wind Wind Speed Wind Gust Humidity Rainfall Rate (Hourly) Conditions
00:00 43.6 °F 25.7 °F 30.41 in NNE 3.0 mph 6.0 mph 49% 0.00 in
00:01 43.6 °F 25.7 °F 30.41 in North 3.0 mph 6.0 mph 49% 0.00 in
00:06 43.4 °F 25.5 °F 30.41 in NNE 3.0 mph 5.0 mph 49% 0.00 in
00:11 43.3 °F 25.4 °F 30.41 in North 2.0 mph 5.0 mph 49% 0.00 in
00:16 43.1 °F 25.7 °F 30.42 in NE 3.0 mph 6.0 mph 50% 0.00 in
00:21 42.8 °F 25.5 °F 30.42 in NNE 3.0 mph 5.0 mph 50% 0.00 in
00:26 42.6 °F 25.8 °F 30.41 in NE 3.0 mph 5.0 mph 51% 0.00 in
00:31 42.4 °F 25.6 °F 30.41 in NNE 5.0 mph 7.0 mph 51% 0.00 in
00:36 42.4 °F 25.1 °F 30.41 in NNE 3.0 mph 4.0 mph 50% 0.00 in
00:41 42.4 °F 25.1 °F 30.41 in NNE 4.0 mph 5.0 mph 50% 0.00 in
00:46 42.4 °F 25.6 °F 30.41 in NNE 4.0 mph 6.0 mph 51% 0.00 in
00:51 42.3 °F 25.0 °F 30.41 in NNE 3.0 mph 6.0 mph 50% 0.00 in
00:56 42.0 °F 25.2 °F 30.41 in NNE 4.0 mph 4.0 mph 51% 0.00 in
01:01 41.8 °F 25.0 °F 30.41 in NNE 3.0 mph 5.0 mph 51% 0.00 in
01:06 41.6 °F 24.8 °F 30.41 in NNE 5.0 mph 5.0 mph 51% 0.00 in
01:11 41.4 °F 25.1 °F 30.41 in NNE 5.0 mph 6.0 mph 52% 0.00 in
01:16 41.1 °F 25.3 °F 30.41 in NNE 2.0 mph 4.0 mph 53% 0.00 in
01:21 41.1 °F 24.8 °F 30.41 in NNE 4.0 mph 5.0 mph 52% 0.00 in
01:26 40.9 °F 25.1 °F 30.41 in NNE 5.0 mph 5.0 mph 53% 0.00 in
01:31 40.8 °F 25.0 °F 30.41 in North 4.0 mph 6.0 mph 53% 0.00 in
01:36 40.5 °F 25.2 °F 30.41 in North 4.0 mph 4.0 mph 54% 0.00 in
01:41 40.3 °F 25.0 °F 30.41 in North 4.0 mph 5.0 mph 54% 0.00 in
01:46 40.1 °F 24.8 °F 30.41 in NNW 3.0 mph 6.0 mph 54% 0.00 in
01:51 40.0 °F 25.1 °F 30.40 in North 5.0 mph 6.0 mph 55% 0.00 in
01:56 39.9 °F 24.6 °F 30.40 in NNE 3.0 mph 5.0 mph 54% 0.00 in
02:02 40.0 °F 24.3 °F 30.41 in North 2.0 mph 4.0 mph 53% 0.00 in
02:07 40.2 °F 24.5 °F 30.41 in NNE 4.0 mph 8.0 mph 53% 0.00 in
02:12 40.3 °F 24.5 °F 30.40 in NNE 2.0 mph 5.0 mph 53% 0.00 in
02:17 40.1 °F 24.4 °F 30.40 in North 5.0 mph 5.0 mph 53% 0.00 in
02:22 40.2 °F 24.5 °F 30.40 in North 3.0 mph 5.0 mph 53% 0.00 in
02:27 39.8 °F 24.5 °F 30.40 in NNE 2.0 mph 4.0 mph 54% 0.00 in
02:32 39.7 °F 24.4 °F 30.40 in North 3.0 mph 6.0 mph 54% 0.00 in
02:37 39.6 °F 24.3 °F 30.40 in NNE 2.0 mph 4.0 mph 54% 0.00 in
02:42 39.4 °F 24.1 °F 30.40 in NNW 4.0 mph 4.0 mph 54% 0.00 in
02:47 39.4 °F 24.1 °F 30.40 in North 3.0 mph 3.0 mph 54% 0.00 in
02:52 39.2 °F 24.0 °F 30.40 in NNE 2.0 mph 4.0 mph 54% 0.00 in
02:57 39.1 °F 24.3 °F 30.40 in NNE 3.0 mph 5.0 mph 55% 0.00 in
03:02 39.0 °F 24.6 °F 30.39 in North 3.0 mph 5.0 mph 56% 0.00 in
03:07 38.7 °F 24.4 °F 30.39 in North 4.0 mph 5.0 mph 56% 0.00 in
03:12 38.5 °F 24.6 °F 30.39 in NNW 3.0 mph 4.0 mph 57% 0.00 in
03:17 38.3 °F 24.4 °F 30.39 in North 3.0 mph 6.0 mph 57% 0.00 in
03:22 38.0 °F 24.5 °F 30.39 in NNW 2.0 mph 4.0 mph 58% 0.00 in
03:27 37.8 °F 24.8 °F 30.39 in North 2.0 mph 4.0 mph 59% 0.00 in
03:32 37.6 °F 24.6 °F 30.39 in North 3.0 mph 4.0 mph 59% 0.00 in
03:37 37.7 °F 24.7 °F 30.39 in North 2.0 mph 5.0 mph 59% 0.00 in
03:42 37.9 °F 24.5 °F 30.39 in NNE 3.0 mph 5.0 mph 58% 0.00 in
03:47 37.8 °F 24.4 °F 30.39 in NNE 3.0 mph 6.0 mph 58% 0.00 in
03:52 37.7 °F 24.7 °F 30.39 in North 3.0 mph 5.0 mph 59% 0.00 in
03:57 37.7 °F 24.7 °F 30.38 in NNE 6.0 mph 6.0 mph 59% 0.00 in
04:02 37.7 °F 24.7 °F 30.38 in NNE 6.0 mph 8.0 mph 59% 0.00 in
04:07 37.7 °F 24.7 °F 30.38 in NNE 4.0 mph 6.0 mph 59% 0.00 in
04:12 37.6 °F 24.6 °F 30.38 in North 6.0 mph 7.0 mph 59% 0.00 in
04:17 37.6 °F 24.6 °F 30.38 in North 4.0 mph 7.0 mph 59% 0.00 in
04:22 37.6 °F 24.6 °F 30.38 in NNE 5.0 mph 8.0 mph 59% 0.00 in
04:27 37.7 °F 24.7 °F 30.38 in NNE 5.0 mph 8.0 mph 59% 0.00 in
04:32 37.6 °F 24.6 °F 30.38 in NNE 5.0 mph 7.0 mph 59% 0.00 in
04:37 37.5 °F 24.9 °F 30.38 in North 5.0 mph 6.0 mph 60% 0.00 in
04:43 37.3 °F 24.7 °F 30.38 in NNE 3.0 mph 5.0 mph 60% 0.00 in
04:48 37.3 °F 24.7 °F 30.38 in North 5.0 mph 6.0 mph 60% 0.00 in
04:53 37.2 °F 24.6 °F 30.38 in North 4.0 mph 5.0 mph 60% 0.00 in
04:58 36.9 °F 24.7 °F 30.38 in NNE 2.0 mph 3.0 mph 61% 0.00 in
05:03 36.8 °F 24.6 °F 30.38 in North 4.0 mph 5.0 mph 61% 0.00 in
05:08 36.9 °F 24.7 °F 30.39 in NNE 4.0 mph 7.0 mph 61% 0.00 in
05:13 36.9 °F 24.7 °F 30.39 in NE 4.0 mph 7.0 mph 61% 0.00 in
05:18 36.6 °F 24.4 °F 30.39 in NNE 4.0 mph 5.0 mph 61% 0.00 in
05:23 36.4 °F 24.2 °F 30.39 in NNE 4.0 mph 8.0 mph 61% 0.00 in
05:28 36.5 °F 24.7 °F 30.38 in NNE 3.0 mph 7.0 mph 62% 0.00 in
05:33 36.5 °F 24.7 °F 30.39 in NNE 4.0 mph 6.0 mph 62% 0.00 in
05:38 36.4 °F 24.6 °F 30.38 in NNE 5.0 mph 7.0 mph 62% 0.00 in
05:43 36.3 °F 24.9 °F 30.38 in NE 5.0 mph 9.0 mph 63% 0.00 in
05:48 36.3 °F 24.9 °F 30.38 in NNE 5.0 mph 8.0 mph 63% 0.00 in
05:53 36.3 °F 24.9 °F 30.38 in NE 4.0 mph 6.0 mph 63% 0.00 in
05:58 36.3 °F 24.9 °F 30.39 in NNE 5.0 mph 6.0 mph 63% 0.00 in
06:03 36.4 °F 25.0 °F 30.39 in NE 6.0 mph 7.0 mph 63% 0.00 in
06:08 36.2 °F 24.8 °F 30.40 in ENE 4.0 mph 5.0 mph 63% 0.00 in
06:13 36.3 °F 24.9 °F 30.40 in ENE 7.0 mph 7.0 mph 63% 0.00 in
06:18 36.3 °F 24.9 °F 30.40 in NE 5.0 mph 6.0 mph 63% 0.00 in
06:23 36.3 °F 24.9 °F 30.40 in NE 4.0 mph 8.0 mph 63% 0.00 in
06:28 36.3 °F 25.3 °F 30.40 in NNE 5.0 mph 7.0 mph 64% 0.00 in
06:33 36.3 °F 25.3 °F 30.40 in NE 5.0 mph 7.0 mph 64% 0.00 in
06:38 36.3 °F 25.3 °F 30.40 in NNE 3.0 mph 5.0 mph 64% 0.00 in
06:43 36.3 °F 25.3 °F 30.41 in NE 3.0 mph 6.0 mph 64% 0.00 in
06:48 36.2 °F 25.2 °F 30.41 in NE 6.0 mph 6.0 mph 64% 0.00 in
06:53 36.3 °F 25.3 °F 30.41 in NE 3.0 mph 5.0 mph 64% 0.00 in
06:58 36.1 °F 25.1 °F 30.41 in NNE 4.0 mph 5.0 mph 64% 0.00 in
07:03 36.1 °F 25.1 °F 30.40 in NE 3.0 mph 6.0 mph 64% 0.00 in
07:08 36.0 °F 25.4 °F 30.40 in NE 3.0 mph 5.0 mph 65% 0.00 in
07:13 35.9 °F 25.3 °F 30.40 in NNE 5.0 mph 8.0 mph 65% 0.00 in
07:18 36.1 °F 25.5 °F 30.40 in NE 5.0 mph 8.0 mph 65% 0.00 in
07:23 36.3 °F 25.7 °F 30.40 in NE 7.0 mph 8.0 mph 65% 0.00 in
07:28 36.7 °F 25.7 °F 30.41 in NE 3.0 mph 7.0 mph 64% 0.00 in
07:33 37.0 °F 26.0 °F 30.41 in NE 3.0 mph 8.0 mph 64% 0.00 in
07:39 37.3 °F 26.3 °F 30.41 in NE 6.0 mph 6.0 mph 64% 0.00 in
07:44 37.5 °F 26.1 °F 30.41 in NNE 4.0 mph 6.0 mph 63% 0.00 in
07:49 37.7 °F 26.3 °F 30.41 in NNE 6.0 mph 6.0 mph 63% 0.00 in
07:54 38.0 °F 26.1 °F 30.41 in NE 7.0 mph 7.0 mph 62% 0.00 in
07:59 38.4 °F 26.5 °F 30.42 in North 4.0 mph 8.0 mph 62% 0.00 in
08:04 38.7 °F 26.4 °F 30.42 in NE 10.0 mph 10.0 mph 61% 0.00 in
08:09 38.9 °F 26.6 °F 30.42 in NE 4.0 mph 6.0 mph 61% 0.00 in
08:14 39.3 °F 27.0 °F 30.43 in NNE 4.0 mph 6.0 mph 61% 0.00 in
08:19 39.7 °F 27.0 °F 30.43 in ENE 2.0 mph 5.0 mph 60% 0.00 in
08:24 40.1 °F 27.4 °F 30.43 in NE 2.0 mph 6.0 mph 60% 0.00 in
08:29 40.6 °F 27.8 °F 30.43 in NE 3.0 mph 5.0 mph 60% 0.00 in
08:34 40.7 °F 27.5 °F 30.43 in NE 3.0 mph 6.0 mph 59% 0.00 in
08:39 41.1 °F 27.5 °F 30.43 in NE 5.0 mph 9.0 mph 58% 0.00 in
08:44 41.5 °F 28.3 °F 30.43 in NNE 5.0 mph 7.0 mph 59% 0.00 in
08:49 41.9 °F 27.4 °F 30.43 in NE 5.0 mph 7.0 mph 56% 0.00 in
08:54 42.3 °F 27.3 °F 30.43 in NNE 5.0 mph 9.0 mph 55% 0.00 in
08:59 42.8 °F 27.3 °F 30.43 in NE 6.0 mph 9.0 mph 54% 0.00 in
09:04 43.1 °F 27.1 °F 30.43 in NNE 9.0 mph 9.0 mph 53% 0.00 in
09:09 43.4 °F 27.9 °F 30.43 in NE 7.0 mph 9.0 mph 54% 0.00 in
09:14 44.1 °F 28.5 °F 30.43 in NE 5.0 mph 9.0 mph 54% 0.00 in
09:19 44.8 °F 28.7 °F 30.43 in East 6.0 mph 8.0 mph 53% 0.00 in
09:24 45.1 °F 27.6 °F 30.43 in ENE 4.0 mph 9.0 mph 50% 0.00 in
09:29 45.5 °F 28.0 °F 30.43 in NE 6.0 mph 8.0 mph 50% 0.00 in
09:34 45.9 °F 27.8 °F 30.43 in NE 3.0 mph 6.0 mph 49% 0.00 in
09:39 46.3 °F 27.7 °F 30.43 in NE 8.0 mph 8.0 mph 48% 0.00 in
09:44 46.8 °F 28.7 °F 30.43 in NE 4.0 mph 7.0 mph 49% 0.00 in
09:49 47.3 °F 29.1 °F 30.43 in NE 7.0 mph 9.0 mph 49% 0.00 in
09:54 47.5 °F 27.8 °F 30.43 in NE 7.0 mph 11.0 mph 46% 0.00 in
09:59 47.8 °F 27.5 °F 30.43 in NE 4.0 mph 9.0 mph 45% 0.00 in
10:04 48.2 °F 27.3 °F 30.43 in NNE 6.0 mph 10.0 mph 44% 0.00 in
10:09 48.5 °F 28.7 °F 30.43 in NNW 6.0 mph 8.0 mph 46% 0.00 in
10:14 48.7 °F 27.2 °F 30.43 in NE 8.0 mph 11.0 mph 43% 0.00 in
10:19 49.2 °F 29.3 °F 30.43 in NE 5.0 mph 9.0 mph 46% 0.00 in
10:25 49.6 °F 28.6 °F 30.43 in NE 4.0 mph 9.0 mph 44% 0.00 in
10:30 50.0 °F 30.6 °F 30.43 in NE 6.0 mph 9.0 mph 47% 0.00 in
10:35 50.4 °F 29.3 °F 30.43 in NNE 5.0 mph 7.0 mph 44% 0.00 in
10:40 50.7 °F 29.0 °F 30.43 in NE 5.0 mph 9.0 mph 43% 0.00 in
10:45 50.8 °F 28.5 °F 30.43 in North 5.0 mph 10.0 mph 42% 0.00 in
10:50 51.4 °F 32.4 °F 30.43 in NNE 1.0 mph 6.0 mph 48% 0.00 in
10:55 52.1 °F 29.1 °F 30.44 in NE 4.0 mph 7.0 mph 41% 0.00 in
11:00 52.4 °F 27.6 °F 30.44 in NE 4.0 mph 6.0 mph 38% 0.00 in
11:05 52.6 °F 30.2 °F 30.44 in ENE 6.0 mph 7.0 mph 42% 0.00 in
11:10 52.5 °F 27.6 °F 30.44 in East 4.0 mph 5.0 mph 38% 0.00 in
11:15 53.0 °F 31.7 °F 30.44 in NNE 4.0 mph 11.0 mph 44% 0.00 in
11:20 52.9 °F 29.9 °F 30.43 in NNE 6.0 mph 8.0 mph 41% 0.00 in
11:25 53.3 °F 30.8 °F 30.43 in SE 1.0 mph 3.0 mph 42% 0.00 in
11:30 54.0 °F 28.3 °F 30.43 in East 1.0 mph 6.0 mph 37% 0.00 in
11:36 54.6 °F 28.2 °F 30.43 in ESE 4.0 mph 6.0 mph 36% 0.00 in
11:37 54.7 °F 30.2 °F 30.42 in SE 4.0 mph 8.0 mph 39% 0.00 in
11:42 54.8 °F 27.7 °F 30.42 in ENE 5.0 mph 10.0 mph 35% 0.00 in
11:47 54.9 °F 29.8 °F 30.42 in NE 6.0 mph 8.0 mph 38% 0.00 in
11:52 55.2 °F 29.4 °F 30.42 in NE 8.0 mph 8.0 mph 37% 0.00 in
11:57 55.5 °F 29.7 °F 30.41 in NNE 4.0 mph 7.0 mph 37% 0.00 in
12:02 55.9 °F 28.7 °F 30.41 in East 1.0 mph 5.0 mph 35% 0.00 in
12:07 56.3 °F 27.6 °F 30.41 in East 3.0 mph 8.0 mph 33% 0.00 in
12:12 56.5 °F 28.5 °F 30.41 in ENE 5.0 mph 9.0 mph 34% 0.00 in
12:17 56.9 °F 29.5 °F 30.41 in East 8.0 mph 8.0 mph 35% 0.00 in
12:22 57.5 °F 30.8 °F 30.41 in East 6.0 mph 9.0 mph 36% 0.00 in
12:27 57.8 °F 31.7 °F 30.41 in SSE 5.0 mph 9.0 mph 37% 0.00 in
12:32 58.0 °F 29.8 °F 30.40 in East 5.0 mph 8.0 mph 34% 0.00 in
12:37 58.0 °F 28.3 °F 30.40 in ESE 2.0 mph 8.0 mph 32% 0.00 in
12:42 58.4 °F 30.2 °F 30.39 in ENE 3.0 mph 6.0 mph 34% 0.00 in
12:47 58.6 °F 31.0 °F 30.39 in SE 4.0 mph 5.0 mph 35% 0.00 in
12:52 59.1 °F 31.5 °F 30.39 in SSE 3.0 mph 6.0 mph 35% 0.00 in
12:57 59.5 °F 31.1 °F 30.39 in ENE 3.0 mph 4.0 mph 34% 0.00 in
13:02 59.5 °F 28.9 °F 30.39 in SE 5.0 mph 10.0 mph 31% 0.00 in
13:07 59.4 °F 30.3 °F 30.38 in ESE 3.0 mph 6.0 mph 33% 0.00 in
13:12 59.9 °F 31.5 °F 30.38 in East 1.0 mph 6.0 mph 34% 0.00 in
13:17 60.2 °F 31.8 °F 30.37 in NE 4.0 mph 6.0 mph 34% 0.00 in
13:23 60.1 °F 31.7 °F 30.37 in ESE 3.0 mph 8.0 mph 34% 0.00 in
13:28 60.3 °F 32.6 °F 30.37 in SE 2.0 mph 6.0 mph 35% 0.00 in
13:33 61.0 °F 31.0 °F 30.37 in SE 1.0 mph 6.0 mph 32% 0.00 in
13:38 61.6 °F 29.1 °F 30.36 in SSE 1.0 mph 4.0 mph 29% 0.00 in
13:43 61.4 °F 28.9 °F 30.36 in ESE 3.0 mph 6.0 mph 29% 0.00 in
13:48 61.3 °F 29.6 °F 30.36 in ESE 7.0 mph 10.0 mph 30% 0.00 in
13:53 61.4 °F 29.7 °F 30.36 in SE 2.0 mph 5.0 mph 30% 0.00 in
13:58 61.9 °F 30.1 °F 30.36 in SE 3.0 mph 3.0 mph 30% 0.00 in
14:03 62.0 °F 30.2 °F 30.36 in SE 6.0 mph 8.0 mph 30% 0.00 in
14:08 61.8 °F 30.1 °F 30.35 in SSE 4.0 mph 7.0 mph 30% 0.00 in
14:13 62.3 °F 31.3 °F 30.35 in SW 1.0 mph 6.0 mph 31% 0.00 in
14:18 62.5 °F 31.5 °F 30.35 in SE 3.0 mph 7.0 mph 31% 0.00 in
14:23 62.8 °F 34.8 °F 30.35 in SSE 4.0 mph 5.0 mph 35% 0.00 in
14:28 63.0 °F 35.7 °F 30.35 in SSE 4.0 mph 4.0 mph 36% 0.00 in
14:33 63.2 °F 32.1 °F 30.35 in SSW 2.0 mph 6.0 mph 31% 0.00 in
14:39 63.2 °F 33.6 °F 30.34 in SE 7.0 mph 7.0 mph 33% 0.00 in
14:44 62.7 °F 31.6 °F 30.34 in North 1.0 mph 7.0 mph 31% 0.00 in
14:49 62.5 °F 33.8 °F 30.34 in WSW 3.0 mph 5.0 mph 34% 0.00 in
14:54 63.3 °F 33.7 °F 30.34 in East 4.0 mph 6.0 mph 33% 0.00 in
15:00 62.7 °F 32.4 °F 30.33 in Calm   8.0 mph 32% 0.00 in
15:05 62.9 °F 33.4 °F 30.33 in South 2.0 mph 6.0 mph 33% 0.00 in
15:10 63.2 °F 33.6 °F 30.33 in South 2.0 mph 5.0 mph 33% 0.00 in
15:15 63.9 °F 35.0 °F 30.33 in WSW 4.0 mph 4.0 mph 34% 0.00 in
15:20 64.5 °F 34.0 °F 30.33 in SSE 6.0 mph 6.0 mph 32% 0.00 in
15:25 64.5 °F 36.3 °F 30.33 in ESE 1.0 mph 4.0 mph 35% 0.00 in
15:30 64.5 °F 34.8 °F 30.33 in SSE 4.0 mph 5.0 mph 33% 0.00 in
15:35 64.4 °F 36.2 °F 30.33 in SSE 6.0 mph 7.0 mph 35% 0.00 in
15:40 64.4 °F 34.7 °F 30.32 in South 3.0 mph 6.0 mph 33% 0.00 in
15:45 64.5 °F 34.0 °F 30.32 in SSE 1.0 mph 3.0 mph 32% 0.00 in
15:50 64.9 °F 35.1 °F 30.32 in SE 2.0 mph 6.0 mph 33% 0.00 in
15:55 64.9 °F 35.1 °F 30.32 in SSE 3.0 mph 6.0 mph 33% 0.00 in
16:00 64.6 °F 34.9 °F 30.31 in ESE 3.0 mph 7.0 mph 33% 0.00 in
16:05 64.5 °F 34.8 °F 30.31 in East 2.0 mph 4.0 mph 33% 0.00 in
16:07 64.6 °F 36.3 °F 30.31 in East 2.0 mph 4.0 mph 35% 0.00 in
16:12 64.5 °F 34.0 °F 30.31 in SE 4.0 mph 5.0 mph 32% 0.00 in
16:17 64.3 °F 33.8 °F 30.31 in East 4.0 mph 8.0 mph 32% 0.00 in
16:22 64.1 °F 33.7 °F 30.31 in ENE 4.0 mph 6.0 mph 32% 0.00 in
16:27 64.1 °F 35.2 °F 30.30 in ENE 3.0 mph 7.0 mph 34% 0.00 in
16:32 64.1 °F 33.7 °F 30.30 in ENE 2.0 mph 7.0 mph 32% 0.00 in
16:37 64.2 °F 33.8 °F 30.30 in East 5.0 mph 6.0 mph 32% 0.00 in
16:42 63.9 °F 33.5 °F 30.30 in East 5.0 mph 5.0 mph 32% 0.00 in
16:47 63.9 °F 33.5 °F 30.30 in ESE 4.0 mph 6.0 mph 32% 0.00 in
16:52 64.0 °F 34.3 °F 30.29 in SE 4.0 mph 6.0 mph 33% 0.00 in
16:57 64.2 °F 36.7 °F 30.29 in East 3.0 mph 4.0 mph 36% 0.00 in
17:02 64.3 °F 35.4 °F 30.28 in ESE 4.0 mph 5.0 mph 34% 0.00 in
17:07 64.3 °F 36.8 °F 30.28 in ENE 4.0 mph 5.0 mph 36% 0.00 in
17:12 64.1 °F 36.6 °F 30.28 in East 3.0 mph 5.0 mph 36% 0.00 in
17:17 64.1 °F 35.9 °F 30.28 in ESE 4.0 mph 4.0 mph 35% 0.00 in
17:22 64.2 °F 34.5 °F 30.28 in East 3.0 mph 4.0 mph 33% 0.00 in
17:28 64.2 °F 36.0 °F 30.28 in East 3.0 mph 3.0 mph 35% 0.00 in
17:33 64.2 °F 34.5 °F 30.28 in ENE 2.0 mph 5.0 mph 33% 0.00 in
17:37 64.2 °F 38.8 °F 30.29 in ESE 3.0 mph 3.0 mph 39% 0.00 in
17:43 63.9 °F 37.1 °F 30.29 in ESE 4.0 mph 5.0 mph 37% 0.00 in
17:48 63.6 °F 38.2 °F 30.30 in ESE 4.0 mph 5.0 mph 39% 0.00 in
17:53 63.4 °F 35.3 °F 30.29 in East 2.0 mph 4.0 mph 35% 0.00 in
17:58 63.4 °F 34.6 °F 30.29 in East 3.0 mph 3.0 mph 34% 0.00 in
18:03 63.2 °F 37.2 °F 30.29 in SE 4.0 mph 4.0 mph 38% 0.00 in
18:08 62.5 °F 35.9 °F 30.29 in ESE 4.0 mph 4.0 mph 37% 0.00 in
18:13 62.2 °F 36.3 °F 30.29 in ESE 3.0 mph 4.0 mph 38% 0.00 in
18:18 61.5 °F 36.3 °F 30.29 in East 2.0 mph 4.0 mph 39% 0.00 in
18:23 60.9 °F 36.4 °F 30.29 in ESE 4.0 mph 5.0 mph 40% 0.00 in
18:28 60.4 °F 35.3 °F 30.29 in East 4.0 mph 4.0 mph 39% 0.00 in
18:33 60.1 °F 36.3 °F 30.29 in East 1.0 mph 2.0 mph 41% 0.00 in
18:38 59.9 °F 35.5 °F 30.29 in East 1.0 mph 2.0 mph 40% 0.00 in
18:43 59.7 °F 35.4 °F 30.29 in ESE 2.0 mph 2.0 mph 40% 0.00 in
18:48 59.5 °F 35.2 °F 30.29 in ESE 1.0 mph 2.0 mph 40% 0.00 in
18:53 59.3 °F 34.4 °F 30.29 in ESE 1.0 mph 1.0 mph 39% 0.00 in
18:58 59.1 °F 34.2 °F 30.30 in Calm   1.0 mph 39% 0.00 in
19:03 58.9 °F 34.0 °F 30.31 in Calm     39% 0.00 in
19:08 58.2 °F 34.0 °F 30.31 in ESE 1.0 mph 1.0 mph 40% 0.00 in
19:13 58.3 °F 34.1 °F 30.30 in ESE 1.0 mph 1.0 mph 40% 0.00 in
19:18 58.0 °F 33.8 °F 30.30 in East 2.0 mph 2.0 mph 40% 0.00 in
19:23 57.8 °F 33.7 °F 30.30 in East 1.0 mph 1.0 mph 40% 0.00 in
19:28 58.3 °F 33.5 °F 30.30 in East 1.0 mph 2.0 mph 39% 0.00 in
19:33 58.4 °F 33.6 °F 30.30 in Calm   1.0 mph 39% 0.00 in
19:38 58.3 °F 33.5 °F 30.30 in East 1.0 mph 1.0 mph 39% 0.00 in
19:43 58.2 °F 34.0 °F 30.30 in ENE 2.0 mph 2.0 mph 40% 0.00 in
19:48 58.2 °F 34.0 °F 30.30 in East 1.0 mph 2.0 mph 40% 0.00 in
19:53 57.9 °F 34.4 °F 30.30 in East 1.0 mph 1.0 mph 41% 0.00 in
19:58 57.8 °F 34.3 °F 30.31 in East 1.0 mph 2.0 mph 41% 0.00 in
20:03 57.6 °F 34.1 °F 30.31 in East 1.0 mph 1.0 mph 41% 0.00 in
20:08 57.4 °F 33.9 °F 30.31 in East 1.0 mph 1.0 mph 41% 0.00 in
20:13 57.3 °F 33.8 °F 30.30 in Calm   1.0 mph 41% 0.00 in
20:18 57.2 °F 34.3 °F 30.31 in Calm   1.0 mph 42% 0.00 in
20:23 56.8 °F 34.0 °F 30.31 in East 1.0 mph 1.0 mph 42% 0.00 in
20:28 56.6 °F 33.8 °F 30.31 in Calm   1.0 mph 42% 0.00 in
20:33 56.7 °F 33.9 °F 30.31 in Calm   1.0 mph 42% 0.00 in
20:38 56.6 °F 33.8 °F 30.31 in Calm     42% 0.00 in
20:43 56.1 °F 33.9 °F 30.31 in Calm     43% 0.00 in
20:48 55.5 °F 34.0 °F 30.31 in Calm     44% 0.00 in
20:53 55.3 °F 33.8 °F 30.32 in East 1.0 mph 1.0 mph 44% 0.00 in
20:58 55.7 °F 34.1 °F 30.31 in East 1.0 mph 2.0 mph 44% 0.00 in
21:03 55.9 °F 34.3 °F 30.32 in East 1.0 mph 2.0 mph 44% 0.00 in
21:09 55.9 °F 34.3 °F 30.31 in ENE 2.0 mph 2.0 mph 44% 0.00 in
21:14 55.9 °F 34.3 °F 30.32 in East 3.0 mph 3.0 mph 44% 0.00 in
21:19 56.0 °F 34.4 °F 30.31 in ENE 2.0 mph 3.0 mph 44% 0.00 in
21:24 55.9 °F 34.3 °F 30.32 in East 2.0 mph 4.0 mph 44% 0.00 in
21:29 55.5 °F 34.5 °F 30.31 in East 2.0 mph 4.0 mph 45% 0.00 in
21:34 55.2 °F 34.8 °F 30.31 in East 2.0 mph 4.0 mph 46% 0.00 in
21:39 54.9 °F 35.1 °F 30.32 in ESE 1.0 mph 2.0 mph 47% 0.00 in
21:44 54.2 °F 35.0 °F 30.32 in East 3.0 mph 3.0 mph 48% 0.00 in
21:51 53.5 °F 34.8 °F 30.32 in ESE 1.0 mph 1.0 mph 49% 0.00 in
21:56 53.2 °F 35.1 °F 30.32 in ESE 1.0 mph 2.0 mph 50% 0.00 in
22:01 52.8 °F 35.2 °F 30.32 in ESE 2.0 mph 3.0 mph 51% 0.00 in
22:06 52.5 °F 35.4 °F 30.32 in ESE 2.0 mph 3.0 mph 52% 0.00 in
22:11 52.2 °F 35.6 °F 30.31 in ESE 3.0 mph 3.0 mph 53% 0.00 in
22:16 52.4 °F 35.8 °F 30.31 in ESE 3.0 mph 5.0 mph 53% 0.00 in
22:21 52.2 °F 35.6 °F 30.31 in East 3.0 mph 4.0 mph 53% 0.00 in
22:26 51.9 °F 35.8 °F 30.31 in East 1.0 mph 2.0 mph 54% 0.00 in
22:31 51.8 °F 35.7 °F 30.31 in ESE 1.0 mph 2.0 mph 54% 0.00 in
22:36 51.7 °F 35.6 °F 30.31 in East 2.0 mph 3.0 mph 54% 0.00 in
22:41 51.8 °F 35.7 °F 30.31 in ESE 3.0 mph 4.0 mph 54% 0.00 in
22:46 51.6 °F 35.5 °F 30.31 in East 1.0 mph 2.0 mph 54% 0.00 in
22:52 51.6 °F 35.5 °F 30.31 in ESE 1.0 mph 2.0 mph 54% 0.00 in
22:57 51.7 °F 35.6 °F 30.31 in East 1.0 mph 2.0 mph 54% 0.00 in
23:02 51.4 °F 35.8 °F 30.31 in East 1.0 mph 2.0 mph 55% 0.00 in
23:07 51.3 °F 35.7 °F 30.31 in East 2.0 mph 2.0 mph 55% 0.00 in
23:12 51.1 °F 36.0 °F 30.31 in ESE 2.0 mph 3.0 mph 56% 0.00 in
23:17 50.9 °F 35.8 °F 30.31 in ESE 3.0 mph 3.0 mph 56% 0.00 in
23:22 50.6 °F 35.9 °F 30.31 in ESE 3.0 mph 3.0 mph 57% 0.00 in
23:27 50.3 °F 36.1 °F 30.31 in ESE 3.0 mph 3.0 mph 58% 0.00 in
23:32 50.0 °F 36.2 °F 30.31 in ESE 2.0 mph 3.0 mph 59% 0.00 in
23:37 50.0 °F 36.2 °F 30.31 in East 2.0 mph 3.0 mph 59% 0.00 in
23:42 50.2 °F 36.0 °F 30.31 in East 2.0 mph 3.0 mph 58% 0.00 in
23:47 50.3 °F 36.1 °F 30.31 in ESE 1.0 mph 2.0 mph 58% 0.00 in
23:52 50.2 °F 36.0 °F 30.31 in ESE 2.0 mph 3.0 mph 58% 0.00 in
23:57 50.2 °F 36.0 °F 30.30 in ESE 3.0 mph 3.0 mph 58% 0.00 in
Compliments of Weather Underground